sensor_id;sensor_type;location;lat;lon;timestamp;P1;durP1;ratioP1;P2;durP2;ratioP2
42704;SDS011;28342;42.594;23.414;2023-03-25T00:01:13;14.57;;;7.53;;
42704;SDS011;28342;42.594;23.414;2023-03-25T00:03:42;14.48;;;7.90;;
42704;SDS011;28342;42.594;23.414;2023-03-25T00:06:14;13.55;;;8.40;;
42704;SDS011;28342;42.594;23.414;2023-03-25T00:08:40;16.40;;;9.05;;
42704;SDS011;28342;42.594;23.414;2023-03-25T00:11:06;19.40;;;9.45;;
42704;SDS011;28342;42.594;23.414;2023-03-25T00:13:50;17.90;;;9.55;;
42704;SDS011;28342;42.594;23.414;2023-03-25T00:16:16;19.52;;;9.55;;
42704;SDS011;28342;42.594;23.414;2023-03-25T00:18:43;16.40;;;8.27;;
42704;SDS011;28342;42.594;23.414;2023-03-25T00:21:08;18.42;;;9.27;;
42704;SDS011;28342;42.594;23.414;2023-03-25T00:23:35;23.20;;;9.93;;
42704;SDS011;28342;42.594;23.414;2023-03-25T00:26:03;13.57;;;7.60;;
42704;SDS011;28342;42.594;23.414;2023-03-25T00:28:30;14.23;;;7.57;;
42704;SDS011;28342;42.594;23.414;2023-03-25T00:30:58;15.60;;;9.00;;
42704;SDS011;28342;42.594;23.414;2023-03-25T00:33:27;19.40;;;10.20;;
42704;SDS011;28342;42.594;23.414;2023-03-25T00:35:53;15.70;;;9.43;;
42704;SDS011;28342;42.594;23.414;2023-03-25T00:38:27;18.92;;;10.40;;
42704;SDS011;28342;42.594;23.414;2023-03-25T00:41:06;15.52;;;8.20;;
42704;SDS011;28342;42.594;23.414;2023-03-25T00:43:36;14.40;;;8.27;;
42704;SDS011;28342;42.594;23.414;2023-03-25T00:46:02;13.98;;;8.02;;
42704;SDS011;28342;42.594;23.414;2023-03-25T00:48:30;13.27;;;8.30;;
42704;SDS011;28342;42.594;23.414;2023-03-25T00:50:56;14.07;;;8.23;;
42704;SDS011;28342;42.594;23.414;2023-03-25T00:53:23;15.32;;;8.80;;
42704;SDS011;28342;42.594;23.414;2023-03-25T00:55:48;14.95;;;9.98;;
42704;SDS011;28342;42.594;23.414;2023-03-25T00:58:16;18.90;;;10.48;;
42704;SDS011;28342;42.594;23.414;2023-03-25T01:00:41;21.40;;;10.93;;
42704;SDS011;28342;42.594;23.414;2023-03-25T01:03:09;17.30;;;9.93;;
42704;SDS011;28342;42.594;23.414;2023-03-25T01:05:36;20.27;;;10.43;;
42704;SDS011;28342;42.594;23.414;2023-03-25T01:08:05;19.17;;;11.38;;
42704;SDS011;28342;42.594;23.414;2023-03-25T01:10:31;23.00;;;12.18;;
42704;SDS011;28342;42.594;23.414;2023-03-25T01:13:00;18.60;;;10.85;;
42704;SDS011;28342;42.594;23.414;2023-03-25T01:15:25;14.57;;;9.10;;
42704;SDS011;28342;42.594;23.414;2023-03-25T01:17:52;19.67;;;11.02;;
42704;SDS011;28342;42.594;23.414;2023-03-25T01:20:17;17.00;;;9.88;;
42704;SDS011;28342;42.594;23.414;2023-03-25T01:22:44;20.52;;;11.27;;
42704;SDS011;28342;42.594;23.414;2023-03-25T01:25:10;20.02;;;10.25;;
42704;SDS011;28342;42.594;23.414;2023-03-25T01:27:35;22.27;;;11.40;;
42704;SDS011;28342;42.594;23.414;2023-03-25T01:30:03;21.55;;;12.73;;
42704;SDS011;28342;42.594;23.414;2023-03-25T01:32:30;22.73;;;11.60;;
42704;SDS011;28342;42.594;23.414;2023-03-25T01:34:55;17.90;;;9.98;;
42704;SDS011;28342;42.594;23.414;2023-03-25T01:37:21;18.13;;;10.48;;
42704;SDS011;28342;42.594;23.414;2023-03-25T01:39:49;16.95;;;10.73;;
42704;SDS011;28342;42.594;23.414;2023-03-25T01:42:17;17.55;;;9.63;;
42704;SDS011;28342;42.594;23.414;2023-03-25T01:47:09;15.02;;;10.05;;
42704;SDS011;28342;42.594;23.414;2023-03-25T01:49:38;20.55;;;11.45;;
42704;SDS011;28342;42.594;23.414;2023-03-25T01:54:36;18.15;;;11.10;;
42704;SDS011;28342;42.594;23.414;2023-03-25T01:57:04;18.98;;;10.18;;
42704;SDS011;28342;42.594;23.414;2023-03-25T01:59:32;21.55;;;11.70;;
42704;SDS011;28342;42.594;23.414;2023-03-25T02:01:59;15.35;;;9.02;;
42704;SDS011;28342;42.594;23.414;2023-03-25T02:04:32;17.85;;;9.15;;
42704;SDS011;28342;42.594;23.414;2023-03-25T02:07:04;20.77;;;10.20;;
42704;SDS011;28342;42.594;23.414;2023-03-25T02:09:32;22.20;;;10.57;;
42704;SDS011;28342;42.594;23.414;2023-03-25T02:11:58;20.88;;;10.75;;
42704;SDS011;28342;42.594;23.414;2023-03-25T02:14:26;17.25;;;9.82;;
42704;SDS011;28342;42.594;23.414;2023-03-25T02:39:06;19.90;;;10.70;;
42704;SDS011;28342;42.594;23.414;2023-03-25T02:44:55;14.50;;;7.90;;
42704;SDS011;28342;42.594;23.414;2023-03-25T02:47:23;16.27;;;10.10;;
42704;SDS011;28342;42.594;23.414;2023-03-25T02:49:57;14.02;;;9.40;;
42704;SDS011;28342;42.594;23.414;2023-03-25T02:52:30;23.95;;;12.82;;
42704;SDS011;28342;42.594;23.414;2023-03-25T02:55:02;24.20;;;15.02;;
42704;SDS011;28342;42.594;23.414;2023-03-25T02:57:34;30.58;;;16.17;;
42704;SDS011;28342;42.594;23.414;2023-03-25T03:00:04;24.33;;;13.30;;
42704;SDS011;28342;42.594;23.414;2023-03-25T03:02:39;21.90;;;12.30;;
42704;SDS011;28342;42.594;23.414;2023-03-25T03:05:20;19.48;;;11.70;;
42704;SDS011;28342;42.594;23.414;2023-03-25T03:10:37;17.52;;;10.40;;
42704;SDS011;28342;42.594;23.414;2023-03-25T03:16:08;21.13;;;11.80;;
42704;SDS011;28342;42.594;23.414;2023-03-25T03:24:30;20.88;;;10.73;;
42704;SDS011;28342;42.594;23.414;2023-03-25T03:29:46;19.52;;;11.05;;
42704;SDS011;28342;42.594;23.414;2023-03-25T03:32:21;18.77;;;11.18;;
42704;SDS011;28342;42.594;23.414;2023-03-25T03:35:19;19.42;;;11.05;;
42704;SDS011;28342;42.594;23.414;2023-03-25T03:37:52;19.63;;;11.65;;
42704;SDS011;28342;42.594;23.414;2023-03-25T03:40:26;22.35;;;12.52;;
42704;SDS011;28342;42.594;23.414;2023-03-25T03:42:54;20.02;;;10.57;;
42704;SDS011;28342;42.594;23.414;2023-03-25T03:45:25;26.52;;;12.18;;
42704;SDS011;28342;42.594;23.414;2023-03-25T03:47:58;20.83;;;11.85;;
42704;SDS011;28342;42.594;23.414;2023-03-25T03:50:31;22.20;;;13.27;;
42704;SDS011;28342;42.594;23.414;2023-03-25T03:53:07;21.17;;;12.43;;
42704;SDS011;28342;42.594;23.414;2023-03-25T03:55:45;22.15;;;13.00;;
42704;SDS011;28342;42.594;23.414;2023-03-25T03:58:28;16.98;;;10.93;;
42704;SDS011;28342;42.594;23.414;2023-03-25T04:03:31;15.95;;;10.73;;
42704;SDS011;28342;42.594;23.414;2023-03-25T04:06:15;20.33;;;11.93;;
42704;SDS011;28342;42.594;23.414;2023-03-25T04:08:58;25.17;;;13.02;;
42704;SDS011;28342;42.594;23.414;2023-03-25T04:11:55;18.75;;;11.35;;
42704;SDS011;28342;42.594;23.414;2023-03-25T04:14:26;22.25;;;12.77;;
42704;SDS011;28342;42.594;23.414;2023-03-25T04:16:53;23.83;;;13.02;;
42704;SDS011;28342;42.594;23.414;2023-03-25T04:19:19;34.40;;;15.02;;
42704;SDS011;28342;42.594;23.414;2023-03-25T04:21:45;23.48;;;12.98;;
42704;SDS011;28342;42.594;23.414;2023-03-25T04:24:14;27.33;;;14.33;;
42704;SDS011;28342;42.594;23.414;2023-03-25T04:26:40;27.77;;;15.30;;
42704;SDS011;28342;42.594;23.414;2023-03-25T04:29:07;22.40;;;13.00;;
42704;SDS011;28342;42.594;23.414;2023-03-25T04:31:34;23.38;;;13.40;;
42704;SDS011;28342;42.594;23.414;2023-03-25T04:34:02;24.38;;;12.45;;
42704;SDS011;28342;42.594;23.414;2023-03-25T04:36:29;16.17;;;11.10;;
42704;SDS011;28342;42.594;23.414;2023-03-25T04:39:01;27.67;;;13.57;;
42704;SDS011;28342;42.594;23.414;2023-03-25T04:41:27;18.67;;;10.65;;
42704;SDS011;28342;42.594;23.414;2023-03-25T04:43:53;27.33;;;12.50;;
42704;SDS011;28342;42.594;23.414;2023-03-25T04:46:18;22.38;;;12.55;;
42704;SDS011;28342;42.594;23.414;2023-03-25T04:48:44;20.38;;;11.02;;
42704;SDS011;28342;42.594;23.414;2023-03-25T04:51:11;36.20;;;18.13;;
42704;SDS011;28342;42.594;23.414;2023-03-25T04:53:40;23.60;;;13.90;;
42704;SDS011;28342;42.594;23.414;2023-03-25T04:56:06;21.48;;;11.73;;
42704;SDS011;28342;42.594;23.414;2023-03-25T04:58:40;19.80;;;11.80;;
42704;SDS011;28342;42.594;23.414;2023-03-25T05:01:06;22.42;;;12.15;;
42704;SDS011;28342;42.594;23.414;2023-03-25T05:03:35;24.65;;;11.93;;
42704;SDS011;28342;42.594;23.414;2023-03-25T05:06:04;19.77;;;11.48;;
42704;SDS011;28342;42.594;23.414;2023-03-25T05:08:32;21.65;;;11.50;;
42704;SDS011;28342;42.594;23.414;2023-03-25T05:10:58;20.05;;;11.45;;
42704;SDS011;28342;42.594;23.414;2023-03-25T05:13:23;19.38;;;10.88;;
42704;SDS011;28342;42.594;23.414;2023-03-25T05:15:48;20.50;;;12.48;;
42704;SDS011;28342;42.594;23.414;2023-03-25T05:18:15;18.17;;;11.43;;
42704;SDS011;28342;42.594;23.414;2023-03-25T05:20:43;21.90;;;11.35;;
42704;SDS011;28342;42.594;23.414;2023-03-25T05:23:11;19.38;;;10.68;;
42704;SDS011;28342;42.594;23.414;2023-03-25T05:25:42;21.10;;;10.35;;
42704;SDS011;28342;42.594;23.414;2023-03-25T05:28:08;18.92;;;10.35;;
42704;SDS011;28342;42.594;23.414;2023-03-25T05:30:38;18.05;;;10.82;;
42704;SDS011;28342;42.594;23.414;2023-03-25T05:33:10;17.50;;;10.77;;
42704;SDS011;28342;42.594;23.414;2023-03-25T05:35:37;19.02;;;10.57;;
42704;SDS011;28342;42.594;23.414;2023-03-25T05:38:03;20.80;;;11.20;;
42704;SDS011;28342;42.594;23.414;2023-03-25T05:40:30;20.98;;;10.65;;
42704;SDS011;28342;42.594;23.414;2023-03-25T05:42:56;21.98;;;11.00;;
42704;SDS011;28342;42.594;23.414;2023-03-25T05:45:21;21.98;;;10.75;;
42704;SDS011;28342;42.594;23.414;2023-03-25T05:47:47;16.80;;;10.30;;
42704;SDS011;28342;42.594;23.414;2023-03-25T05:50:14;23.10;;;10.43;;
42704;SDS011;28342;42.594;23.414;2023-03-25T05:52:39;15.82;;;9.40;;
42704;SDS011;28342;42.594;23.414;2023-03-25T05:55:06;16.48;;;9.82;;
42704;SDS011;28342;42.594;23.414;2023-03-25T05:57:34;13.30;;;8.85;;
42704;SDS011;28342;42.594;23.414;2023-03-25T06:00:00;14.02;;;9.43;;
42704;SDS011;28342;42.594;23.414;2023-03-25T06:02:26;15.25;;;10.07;;
42704;SDS011;28342;42.594;23.414;2023-03-25T06:04:52;21.73;;;10.32;;
42704;SDS011;28342;42.594;23.414;2023-03-25T06:07:17;17.40;;;9.57;;
42704;SDS011;28342;42.594;23.414;2023-03-25T06:09:46;22.02;;;10.57;;
42704;SDS011;28342;42.594;23.414;2023-03-25T06:12:12;19.35;;;9.98;;
42704;SDS011;28342;42.594;23.414;2023-03-25T06:14:41;15.38;;;8.82;;
42704;SDS011;28342;42.594;23.414;2023-03-25T06:17:09;15.05;;;9.63;;
42704;SDS011;28342;42.594;23.414;2023-03-25T06:19:35;14.70;;;8.82;;
42704;SDS011;28342;42.594;23.414;2023-03-25T06:22:07;17.98;;;9.80;;
42704;SDS011;28342;42.594;23.414;2023-03-25T06:24:35;13.27;;;9.05;;
42704;SDS011;28342;42.594;23.414;2023-03-25T06:27:04;12.48;;;8.77;;
42704;SDS011;28342;42.594;23.414;2023-03-25T06:29:32;16.15;;;9.13;;
42704;SDS011;28342;42.594;23.414;2023-03-25T06:31:58;15.43;;;9.70;;
42704;SDS011;28342;42.594;23.414;2023-03-25T06:34:24;13.02;;;8.35;;
42704;SDS011;28342;42.594;23.414;2023-03-25T06:36:50;16.05;;;8.43;;
42704;SDS011;28342;42.594;23.414;2023-03-25T06:39:18;12.63;;;8.25;;
42704;SDS011;28342;42.594;23.414;2023-03-25T06:41:44;14.93;;;8.40;;
42704;SDS011;28342;42.594;23.414;2023-03-25T06:44:10;13.57;;;8.98;;
42704;SDS011;28342;42.594;23.414;2023-03-25T06:46:35;12.30;;;8.02;;
42704;SDS011;28342;42.594;23.414;2023-03-25T06:49:01;11.52;;;8.15;;
42704;SDS011;28342;42.594;23.414;2023-03-25T06:51:26;13.18;;;7.93;;
42704;SDS011;28342;42.594;23.414;2023-03-25T06:53:51;13.68;;;7.72;;
42704;SDS011;28342;42.594;23.414;2023-03-25T06:56:17;15.98;;;8.57;;
42704;SDS011;28342;42.594;23.414;2023-03-25T06:58:43;20.63;;;7.90;;
42704;SDS011;28342;42.594;23.414;2023-03-25T07:01:08;13.10;;;7.88;;
42704;SDS011;28342;42.594;23.414;2023-03-25T07:03:34;12.68;;;7.43;;
42704;SDS011;28342;42.594;23.414;2023-03-25T07:06:02;11.85;;;7.38;;
42704;SDS011;28342;42.594;23.414;2023-03-25T07:08:29;11.30;;;7.40;;
42704;SDS011;28342;42.594;23.414;2023-03-25T07:11:04;11.88;;;7.78;;
42704;SDS011;28342;42.594;23.414;2023-03-25T07:13:34;12.07;;;7.63;;
42704;SDS011;28342;42.594;23.414;2023-03-25T07:15:59;12.90;;;7.80;;
42704;SDS011;28342;42.594;23.414;2023-03-25T07:18:25;11.73;;;7.25;;
42704;SDS011;28342;42.594;23.414;2023-03-25T07:20:51;19.58;;;10.60;;
42704;SDS011;28342;42.594;23.414;2023-03-25T07:23:17;18.13;;;10.30;;
42704;SDS011;28342;42.594;23.414;2023-03-25T07:25:43;17.13;;;10.05;;
42704;SDS011;28342;42.594;23.414;2023-03-25T07:28:08;19.75;;;11.23;;
42704;SDS011;28342;42.594;23.414;2023-03-25T07:30:34;20.63;;;10.82;;
42704;SDS011;28342;42.594;23.414;2023-03-25T07:32:59;27.40;;;11.18;;
42704;SDS011;28342;42.594;23.414;2023-03-25T07:35:25;17.77;;;10.45;;
42704;SDS011;28342;42.594;23.414;2023-03-25T07:37:50;15.93;;;9.68;;
42704;SDS011;28342;42.594;23.414;2023-03-25T07:40:16;14.63;;;9.32;;
42704;SDS011;28342;42.594;23.414;2023-03-25T07:42:42;17.35;;;9.10;;
42704;SDS011;28342;42.594;23.414;2023-03-25T07:45:08;16.40;;;8.68;;
42704;SDS011;28342;42.594;23.414;2023-03-25T07:47:34;12.75;;;7.93;;
42704;SDS011;28342;42.594;23.414;2023-03-25T07:49:59;18.65;;;9.23;;
42704;SDS011;28342;42.594;23.414;2023-03-25T07:52:25;20.98;;;8.27;;
42704;SDS011;28342;42.594;23.414;2023-03-25T07:54:50;13.35;;;8.60;;
42704;SDS011;28342;42.594;23.414;2023-03-25T07:57:16;13.25;;;7.78;;
42704;SDS011;28342;42.594;23.414;2023-03-25T07:59:41;13.05;;;7.85;;
42704;SDS011;28342;42.594;23.414;2023-03-25T08:02:08;15.05;;;8.52;;
42704;SDS011;28342;42.594;23.414;2023-03-25T08:04:36;13.10;;;9.07;;
42704;SDS011;28342;42.594;23.414;2023-03-25T08:07:02;12.95;;;8.88;;
42704;SDS011;28342;42.594;23.414;2023-03-25T08:09:27;10.85;;;8.07;;
42704;SDS011;28342;42.594;23.414;2023-03-25T08:11:53;12.48;;;8.40;;
42704;SDS011;28342;42.594;23.414;2023-03-25T08:14:19;15.90;;;7.88;;
42704;SDS011;28342;42.594;23.414;2023-03-25T08:16:44;11.88;;;8.18;;
42704;SDS011;28342;42.594;23.414;2023-03-25T08:19:10;12.95;;;8.10;;
42704;SDS011;28342;42.594;23.414;2023-03-25T08:21:35;11.57;;;7.55;;
42704;SDS011;28342;42.594;23.414;2023-03-25T08:24:01;15.00;;;8.23;;
42704;SDS011;28342;42.594;23.414;2023-03-25T08:26:28;12.70;;;7.50;;
42704;SDS011;28342;42.594;23.414;2023-03-25T08:28:55;10.93;;;7.38;;
42704;SDS011;28342;42.594;23.414;2023-03-25T08:31:25;10.13;;;7.57;;
42704;SDS011;28342;42.594;23.414;2023-03-25T08:33:55;29.75;;;10.00;;
42704;SDS011;28342;42.594;23.414;2023-03-25T08:36:21;12.88;;;7.85;;
42704;SDS011;28342;42.594;23.414;2023-03-25T08:38:47;21.02;;;8.38;;
42704;SDS011;28342;42.594;23.414;2023-03-25T08:41:13;14.45;;;7.70;;
42704;SDS011;28342;42.594;23.414;2023-03-25T08:43:39;11.77;;;7.30;;
42704;SDS011;28342;42.594;23.414;2023-03-25T08:46:05;16.33;;;7.60;;
42704;SDS011;28342;42.594;23.414;2023-03-25T08:48:30;17.25;;;8.13;;
42704;SDS011;28342;42.594;23.414;2023-03-25T08:50:56;14.65;;;7.50;;
42704;SDS011;28342;42.594;23.414;2023-03-25T08:53:21;11.70;;;7.18;;
42704;SDS011;28342;42.594;23.414;2023-03-25T08:55:54;12.52;;;7.25;;
42704;SDS011;28342;42.594;23.414;2023-03-25T08:58:21;12.57;;;6.60;;
42704;SDS011;28342;42.594;23.414;2023-03-25T09:00:54;14.45;;;7.55;;
42704;SDS011;28342;42.594;23.414;2023-03-25T09:03:23;12.82;;;7.35;;
42704;SDS011;28342;42.594;23.414;2023-03-25T09:05:51;13.13;;;6.82;;
42704;SDS011;28342;42.594;23.414;2023-03-25T09:08:17;11.98;;;6.38;;
42704;SDS011;28342;42.594;23.414;2023-03-25T09:10:43;12.63;;;7.40;;
42704;SDS011;28342;42.594;23.414;2023-03-25T09:13:08;14.30;;;7.03;;
42704;SDS011;28342;42.594;23.414;2023-03-25T09:15:33;10.70;;;7.72;;
42704;SDS011;28342;42.594;23.414;2023-03-25T09:17:59;9.57;;;6.88;;
42704;SDS011;28342;42.594;23.414;2023-03-25T09:20:25;12.70;;;7.03;;
42704;SDS011;28342;42.594;23.414;2023-03-25T09:22:50;15.15;;;8.18;;
42704;SDS011;28342;42.594;23.414;2023-03-25T09:25:16;11.35;;;7.50;;
42704;SDS011;28342;42.594;23.414;2023-03-25T09:27:42;11.18;;;6.88;;
42704;SDS011;28342;42.594;23.414;2023-03-25T09:30:07;11.32;;;7.22;;
42704;SDS011;28342;42.594;23.414;2023-03-25T09:32:33;11.52;;;6.70;;
42704;SDS011;28342;42.594;23.414;2023-03-25T09:34:59;10.57;;;6.65;;
42704;SDS011;28342;42.594;23.414;2023-03-25T09:37:25;13.18;;;6.93;;
42704;SDS011;28342;42.594;23.414;2023-03-25T09:39:51;12.13;;;6.32;;
42704;SDS011;28342;42.594;23.414;2023-03-25T09:47:52;10.63;;;6.15;;
42704;SDS011;28342;42.594;23.414;2023-03-25T09:50:22;9.00;;;5.78;;
42704;SDS011;28342;42.594;23.414;2023-03-25T09:55:28;10.07;;;5.97;;
42704;SDS011;28342;42.594;23.414;2023-03-25T09:58:01;9.20;;;6.00;;
42704;SDS011;28342;42.594;23.414;2023-03-25T10:00:35;10.48;;;6.15;;
42704;SDS011;28342;42.594;23.414;2023-03-25T10:08:31;12.55;;;6.72;;
42704;SDS011;28342;42.594;23.414;2023-03-25T10:16:48;16.58;;;6.43;;
42704;SDS011;28342;42.594;23.414;2023-03-25T10:22:02;7.38;;;5.80;;
42704;SDS011;28342;42.594;23.414;2023-03-25T10:24:35;11.07;;;6.63;;
42704;SDS011;28342;42.594;23.414;2023-03-25T10:29:55;21.70;;;8.35;;
42704;SDS011;28342;42.594;23.414;2023-03-25T10:32:30;15.75;;;8.63;;
42704;SDS011;28342;42.594;23.414;2023-03-25T10:34:59;17.13;;;9.10;;
42704;SDS011;28342;42.594;23.414;2023-03-25T10:37:36;16.08;;;8.32;;
42704;SDS011;28342;42.594;23.414;2023-03-25T10:43:11;16.77;;;8.10;;
42704;SDS011;28342;42.594;23.414;2023-03-25T10:45:42;22.25;;;8.50;;
42704;SDS011;28342;42.594;23.414;2023-03-25T10:48:20;16.05;;;7.97;;
42704;SDS011;28342;42.594;23.414;2023-03-25T10:50:49;20.25;;;8.23;;
42704;SDS011;28342;42.594;23.414;2023-03-25T10:53:19;16.13;;;7.28;;
42704;SDS011;28342;42.594;23.414;2023-03-25T10:55:50;14.32;;;7.78;;
42704;SDS011;28342;42.594;23.414;2023-03-25T10:58:20;15.45;;;7.65;;
42704;SDS011;28342;42.594;23.414;2023-03-25T11:00:47;15.27;;;7.93;;
42704;SDS011;28342;42.594;23.414;2023-03-25T11:03:20;16.88;;;7.50;;
42704;SDS011;28342;42.594;23.414;2023-03-25T11:05:49;12.07;;;6.57;;
42704;SDS011;28342;42.594;23.414;2023-03-25T11:08:16;11.88;;;6.28;;
42704;SDS011;28342;42.594;23.414;2023-03-25T11:10:49;11.70;;;6.35;;
42704;SDS011;28342;42.594;23.414;2023-03-25T11:13:25;11.70;;;4.70;;
42704;SDS011;28342;42.594;23.414;2023-03-25T11:15:53;13.55;;;5.43;;
42704;SDS011;28342;42.594;23.414;2023-03-25T11:18:26;9.50;;;5.10;;
42704;SDS011;28342;42.594;23.414;2023-03-25T11:21:13;9.48;;;4.97;;
42704;SDS011;28342;42.594;23.414;2023-03-25T11:23:48;13.27;;;5.10;;
42704;SDS011;28342;42.594;23.414;2023-03-25T11:26:20;15.18;;;6.05;;
42704;SDS011;28342;42.594;23.414;2023-03-25T11:28:48;10.20;;;5.88;;
42704;SDS011;28342;42.594;23.414;2023-03-25T11:31:18;10.20;;;5.15;;
42704;SDS011;28342;42.594;23.414;2023-03-25T11:33:46;9.02;;;4.90;;
42704;SDS011;28342;42.594;23.414;2023-03-25T11:37:01;12.75;;;4.70;;
42704;SDS011;28342;42.594;23.414;2023-03-25T11:42:03;9.90;;;4.70;;
42704;SDS011;28342;42.594;23.414;2023-03-25T11:44:41;8.25;;;3.95;;
42704;SDS011;28342;42.594;23.414;2023-03-25T11:47:14;5.47;;;4.38;;
42704;SDS011;28342;42.594;23.414;2023-03-25T11:49:50;5.93;;;3.95;;
42704;SDS011;28342;42.594;23.414;2023-03-25T11:52:19;9.98;;;4.28;;
42704;SDS011;28342;42.594;23.414;2023-03-25T11:54:48;8.50;;;4.10;;
42704;SDS011;28342;42.594;23.414;2023-03-25T11:57:18;6.68;;;3.97;;
42704;SDS011;28342;42.594;23.414;2023-03-25T12:03:17;7.25;;;3.90;;
42704;SDS011;28342;42.594;23.414;2023-03-25T12:05:39;8.32;;;4.72;;
42704;SDS011;28342;42.594;23.414;2023-03-25T12:08:13;8.30;;;4.15;;
42704;SDS011;28342;42.594;23.414;2023-03-25T12:19:13;9.45;;;4.28;;
42704;SDS011;28342;42.594;23.414;2023-03-25T12:27:23;6.32;;;3.88;;
42704;SDS011;28342;42.594;23.414;2023-03-25T12:30:18;7.93;;;3.75;;
42704;SDS011;28342;42.594;23.414;2023-03-25T12:41:41;6.63;;;4.20;;
42704;SDS011;28342;42.594;23.414;2023-03-25T12:47:09;5.25;;;3.25;;
42704;SDS011;28342;42.594;23.414;2023-03-25T12:52:27;5.80;;;3.28;;
42704;SDS011;28342;42.594;23.414;2023-03-25T12:57:43;8.48;;;3.38;;
42704;SDS011;28342;42.594;23.414;2023-03-25T13:00:25;5.97;;;2.72;;
42704;SDS011;28342;42.594;23.414;2023-03-25T13:10:54;6.45;;;3.25;;
42704;SDS011;28342;42.594;23.414;2023-03-25T13:13:23;6.65;;;2.97;;
42704;SDS011;28342;42.594;23.414;2023-03-25T13:16:09;7.15;;;3.47;;
42704;SDS011;28342;42.594;23.414;2023-03-25T13:21:22;12.43;;;5.97;;
42704;SDS011;28342;42.594;23.414;2023-03-25T13:24:15;8.40;;;4.43;;
42704;SDS011;28342;42.594;23.414;2023-03-25T13:26:43;6.65;;;3.30;;
42704;SDS011;28342;42.594;23.414;2023-03-25T13:29:20;5.63;;;3.08;;
42704;SDS011;28342;42.594;23.414;2023-03-25T13:31:50;5.13;;;2.83;;
42704;SDS011;28342;42.594;23.414;2023-03-25T13:34:34;5.32;;;3.08;;
42704;SDS011;28342;42.594;23.414;2023-03-25T13:45:08;10.57;;;3.38;;
42704;SDS011;28342;42.594;23.414;2023-03-25T13:47:42;7.13;;;3.75;;
42704;SDS011;28342;42.594;23.414;2023-03-25T13:50:14;12.32;;;4.63;;
42704;SDS011;28342;42.594;23.414;2023-03-25T13:52:49;8.98;;;4.57;;
42704;SDS011;28342;42.594;23.414;2023-03-25T13:55:23;6.07;;;3.30;;
42704;SDS011;28342;42.594;23.414;2023-03-25T13:58:21;4.25;;;3.10;;
42704;SDS011;28342;42.594;23.414;2023-03-25T14:01:10;8.07;;;3.60;;
42704;SDS011;28342;42.594;23.414;2023-03-25T14:09:32;6.80;;;3.63;;
42704;SDS011;28342;42.594;23.414;2023-03-25T14:14:37;7.43;;;4.88;;
42704;SDS011;28342;42.594;23.414;2023-03-25T14:17:08;9.57;;;4.60;;
42704;SDS011;28342;42.594;23.414;2023-03-25T14:19:40;8.40;;;4.40;;
42704;SDS011;28342;42.594;23.414;2023-03-25T14:22:16;7.18;;;5.10;;
42704;SDS011;28342;42.594;23.414;2023-03-25T14:24:45;9.20;;;4.78;;
42704;SDS011;28342;42.594;23.414;2023-03-25T14:27:29;6.95;;;4.45;;
42704;SDS011;28342;42.594;23.414;2023-03-25T14:32:44;10.07;;;5.97;;
42704;SDS011;28342;42.594;23.414;2023-03-25T14:43:16;6.40;;;5.22;;
42704;SDS011;28342;42.594;23.414;2023-03-25T14:45:57;9.90;;;5.43;;
42704;SDS011;28342;42.594;23.414;2023-03-25T14:48:37;8.10;;;5.28;;
42704;SDS011;28342;42.594;23.414;2023-03-25T14:51:18;13.85;;;7.30;;
42704;SDS011;28342;42.594;23.414;2023-03-25T14:56:34;26.20;;;22.13;;
42704;SDS011;28342;42.594;23.414;2023-03-25T14:59:07;14.25;;;10.13;;
42704;SDS011;28342;42.594;23.414;2023-03-25T15:01:41;10.25;;;7.20;;
42704;SDS011;28342;42.594;23.414;2023-03-25T15:06:36;13.30;;;9.40;;
42704;SDS011;28342;42.594;23.414;2023-03-25T15:09:05;13.73;;;8.85;;
42704;SDS011;28342;42.594;23.414;2023-03-25T15:11:34;15.77;;;9.07;;
42704;SDS011;28342;42.594;23.414;2023-03-25T15:14:04;13.05;;;9.18;;
42704;SDS011;28342;42.594;23.414;2023-03-25T15:19:12;15.55;;;9.30;;
42704;SDS011;28342;42.594;23.414;2023-03-25T15:24:27;14.10;;;9.48;;
42704;SDS011;28342;42.594;23.414;2023-03-25T15:26:56;15.43;;;9.23;;
42704;SDS011;28342;42.594;23.414;2023-03-25T15:51:18;22.58;;;10.88;;
42704;SDS011;28342;42.594;23.414;2023-03-25T15:54:02;9.43;;;5.72;;
42704;SDS011;28342;42.594;23.414;2023-03-25T15:56:45;7.07;;;5.40;;
42704;SDS011;28342;42.594;23.414;2023-03-25T15:59:30;5.25;;;4.32;;
42704;SDS011;28342;42.594;23.414;2023-03-25T16:02:03;6.75;;;4.78;;
42704;SDS011;28342;42.594;23.414;2023-03-25T16:04:38;6.70;;;5.40;;
42704;SDS011;28342;42.594;23.414;2023-03-25T16:09:47;11.77;;;8.85;;
42704;SDS011;28342;42.594;23.414;2023-03-25T16:12:19;8.57;;;7.10;;
42704;SDS011;28342;42.594;23.414;2023-03-25T16:14:47;11.48;;;8.05;;
42704;SDS011;28342;42.594;23.414;2023-03-25T16:17:13;10.57;;;7.30;;
42704;SDS011;28342;42.594;23.414;2023-03-25T16:19:42;10.07;;;7.43;;
42704;SDS011;28342;42.594;23.414;2023-03-25T16:24:45;17.25;;;9.38;;
42704;SDS011;28342;42.594;23.414;2023-03-25T16:27:49;15.63;;;9.98;;
42704;SDS011;28342;42.594;23.414;2023-03-25T16:30:18;21.52;;;11.95;;
42704;SDS011;28342;42.594;23.414;2023-03-25T16:35:23;19.58;;;12.13;;
42704;SDS011;28342;42.594;23.414;2023-03-25T16:37:55;25.38;;;14.07;;
42704;SDS011;28342;42.594;23.414;2023-03-25T16:40:27;30.27;;;16.58;;
42704;SDS011;28342;42.594;23.414;2023-03-25T16:42:54;36.42;;;19.42;;
42704;SDS011;28342;42.594;23.414;2023-03-25T16:45:32;47.88;;;22.52;;
42704;SDS011;28342;42.594;23.414;2023-03-25T16:48:04;45.63;;;25.60;;
42704;SDS011;28342;42.594;23.414;2023-03-25T16:50:31;49.35;;;28.40;;
42704;SDS011;28342;42.594;23.414;2023-03-25T16:52:58;51.72;;;30.17;;
42704;SDS011;28342;42.594;23.414;2023-03-25T16:55:49;84.07;;;49.78;;
42704;SDS011;28342;42.594;23.414;2023-03-25T16:58:28;73.40;;;44.83;;
42704;SDS011;28342;42.594;23.414;2023-03-25T17:00:54;53.47;;;32.10;;
42704;SDS011;28342;42.594;23.414;2023-03-25T17:03:42;48.55;;;28.90;;
42704;SDS011;28342;42.594;23.414;2023-03-25T17:06:22;45.38;;;29.00;;
42704;SDS011;28342;42.594;23.414;2023-03-25T17:08:52;43.10;;;27.73;;
42704;SDS011;28342;42.594;23.414;2023-03-25T17:11:21;47.92;;;27.75;;
42704;SDS011;28342;42.594;23.414;2023-03-25T17:13:50;28.45;;;18.73;;
42704;SDS011;28342;42.594;23.414;2023-03-25T17:16:20;20.65;;;14.00;;
42704;SDS011;28342;42.594;23.414;2023-03-25T17:18:47;17.27;;;9.90;;
42704;SDS011;28342;42.594;23.414;2023-03-25T17:21:23;14.98;;;8.52;;
42704;SDS011;28342;42.594;23.414;2023-03-25T17:23:51;13.45;;;9.10;;
42704;SDS011;28342;42.594;23.414;2023-03-25T17:26:19;13.60;;;9.40;;
42704;SDS011;28342;42.594;23.414;2023-03-25T17:31:15;34.97;;;23.60;;
42704;SDS011;28342;42.594;23.414;2023-03-25T17:33:45;22.70;;;15.38;;
42704;SDS011;28342;42.594;23.414;2023-03-25T17:36:35;19.55;;;11.93;;
42704;SDS011;28342;42.594;23.414;2023-03-25T17:39:20;21.50;;;15.45;;
42704;SDS011;28342;42.594;23.414;2023-03-25T17:41:53;23.17;;;15.40;;
42704;SDS011;28342;42.594;23.414;2023-03-25T17:44:24;25.42;;;17.52;;
42704;SDS011;28342;42.594;23.414;2023-03-25T17:46:57;25.52;;;16.15;;
42704;SDS011;28342;42.594;23.414;2023-03-25T17:49:23;18.38;;;11.73;;